createdAt,value
2018-09-15T00:00:52.270Z,98913.28
2018-09-15T00:03:19.535Z,98914.64
2018-09-15T00:05:46.767Z,98914.69
2018-09-15T00:08:14.492Z,98919.05
2018-09-15T00:10:41.771Z,98920.50
2018-09-15T00:13:09.079Z,98922.73
2018-09-15T00:15:36.327Z,98918.87
2018-09-15T00:20:53.735Z,98924.70
2018-09-15T00:23:21.003Z,98919.02
2018-09-15T00:25:48.302Z,98919.97
2018-09-15T00:28:15.557Z,98919.52
2018-09-15T00:30:42.784Z,98920.30
2018-09-15T00:33:10.176Z,98918.96
2018-09-15T00:35:37.576Z,98911.47
2018-09-15T00:38:04.856Z,98913.69
2018-09-15T00:40:32.084Z,98914.02
2018-09-15T00:42:59.319Z,98919.20
2018-09-15T00:45:26.715Z,98916.00
2018-09-15T00:47:53.943Z,98911.59
2018-09-15T00:50:21.194Z,98926.92
2018-09-15T00:52:48.484Z,98932.73
2018-09-15T00:55:15.731Z,98933.37
2018-09-15T00:57:43.109Z,98932.97
2018-09-15T01:00:10.386Z,98947.52
2018-09-15T01:02:37.689Z,98948.30
2018-09-15T01:05:05.451Z,98948.30
2018-09-15T01:07:32.723Z,98938.66
2018-09-15T01:09:59.937Z,98939.29
2018-09-15T01:12:27.186Z,98944.16
2018-09-15T01:14:54.425Z,98939.29
2018-09-15T01:17:21.699Z,98934.02
2018-09-15T01:19:48.905Z,98938.05
2018-09-15T01:22:16.536Z,98941.10
2018-09-15T01:24:43.992Z,98940.33
2018-09-15T01:27:11.248Z,98943.47
2018-09-15T01:29:38.499Z,98937.42
2018-09-15T01:32:05.743Z,98950.69
2018-09-15T01:34:33.011Z,98956.45
2018-09-15T01:37:00.279Z,98954.69
2018-09-15T01:39:27.531Z,98947.14
2018-09-15T01:41:54.757Z,98950.55
2018-09-15T01:44:22.036Z,98956.23
2018-09-15T01:46:49.267Z,98959.70
2018-09-15T01:49:16.510Z,98961.78
2018-09-15T01:51:43.751Z,98959.84
2018-09-15T01:54:11.002Z,98963.16
2018-09-15T01:56:38.214Z,98966.66
2018-09-15T01:59:06.537Z,98962.24
2018-09-15T02:01:33.754Z,98964.70
2018-09-15T02:04:00.981Z,98963.74
2018-09-15T02:06:28.198Z,98964.56
2018-09-15T02:08:55.456Z,98957.47
2018-09-15T02:11:22.670Z,98956.69
2018-09-15T02:13:49.913Z,98966.03
2018-09-15T02:16:17.157Z,98967.47
2018-09-15T02:18:44.383Z,98964.37
2018-09-15T02:21:11.662Z,98967.84
2018-09-15T02:23:38.908Z,98966.89
2018-09-15T02:26:06.527Z,98956.33
2018-09-15T02:28:33.789Z,98956.84
2018-09-15T02:31:01.017Z,98950.02
2018-09-15T02:33:28.304Z,98958.24
2018-09-15T02:35:55.532Z,98963.16
2018-09-15T02:38:22.763Z,98966.05
2018-09-15T02:40:49.980Z,98965.36
2018-09-15T02:43:17.212Z,98970.80
2018-09-15T02:45:44.443Z,98966.94
2018-09-15T02:48:11.683Z,98965.24
2018-09-15T02:50:39.530Z,98960.96
2018-09-15T02:53:06.886Z,98953.92
2018-09-15T02:55:34.128Z,98950.47
2018-09-15T02:58:01.342Z,98955.36
2018-09-15T03:00:28.584Z,98957.55
2018-09-15T03:02:55.830Z,98963.30
2018-09-15T03:05:23.080Z,98964.33
2018-09-15T03:07:57.070Z,98977.21
2018-09-15T03:10:24.365Z,98978.94
2018-09-15T03:12:51.635Z,98974.53
2018-09-15T03:15:19.365Z,98978.11
2018-09-15T03:17:47.339Z,98980.18
2018-09-15T03:20:16.184Z,98988.45
2018-09-15T03:22:45.851Z,98987.59
2018-09-15T03:25:13.090Z,98991.16
2018-09-15T03:27:40.306Z,98997.45
2018-09-15T03:30:07.585Z,98996.14
2018-09-15T03:32:34.826Z,99000.09
2018-09-15T03:35:02.083Z,99002.72
2018-09-15T03:37:29.300Z,99006.97
2018-09-15T03:39:56.540Z,99001.09
2018-09-15T03:42:23.749Z,99003.11
2018-09-15T03:44:51.010Z,98997.23
2018-09-15T03:47:18.246Z,99000.98
2018-09-15T03:49:45.484Z,98994.72
2018-09-15T03:52:12.710Z,98997.30
2018-09-15T03:54:39.968Z,98994.23
2018-09-15T03:57:07.198Z,99000.77
2018-09-15T03:59:34.459Z,99004.31
2018-09-15T04:02:03.779Z,98995.25
2018-09-15T04:04:31.025Z,98987.02
2018-09-15T04:06:58.255Z,98993.33
2018-09-15T04:09:25.526Z,98991.34
2018-09-15T04:11:52.781Z,98997.30
2018-09-15T04:14:20.015Z,98998.36
2018-09-15T04:16:47.260Z,99005.55
2018-09-15T04:19:14.491Z,99001.59
2018-09-15T04:21:41.714Z,98999.04
2018-09-15T04:24:08.969Z,99006.64
2018-09-15T04:26:36.209Z,99025.66
2018-09-15T04:29:03.453Z,99038.96
2018-09-15T04:31:30.688Z,99035.22
2018-09-15T04:33:57.952Z,99036.95
2018-09-15T04:36:25.342Z,99041.20
2018-09-15T04:38:52.597Z,99047.30
2018-09-15T04:41:19.862Z,99047.27
2018-09-15T04:43:47.087Z,99046.34
2018-09-15T04:46:14.343Z,99050.36
2018-09-15T04:48:41.550Z,99046.98
2018-09-15T04:51:08.816Z,99053.80
2018-09-15T04:53:36.075Z,99057.52
2018-09-15T04:56:03.604Z,99058.55
2018-09-15T04:58:30.859Z,99060.34
2018-09-15T05:00:58.155Z,99062.25
2018-09-15T05:03:25.438Z,99062.37
2018-09-15T05:05:52.697Z,99065.53
2018-09-15T05:08:19.958Z,99069.47
2018-09-15T05:10:49.010Z,99070.79
2018-09-15T05:13:16.220Z,99079.58
2018-09-15T05:15:43.490Z,99080.83
2018-09-15T05:18:10.719Z,99083.88
2018-09-15T05:20:37.993Z,99075.55
2018-09-15T05:23:05.643Z,99079.37
2018-09-15T05:25:32.930Z,99081.08
2018-09-15T05:28:00.186Z,99086.67
2018-09-15T05:30:27.410Z,99085.71
2018-09-15T05:32:54.650Z,99089.18
2018-09-15T05:35:21.913Z,99093.94
2018-09-15T05:37:49.246Z,99099.08
2018-09-15T05:40:16.504Z,99098.53
2018-09-15T05:42:43.734Z,99097.06
2018-09-15T05:45:11.039Z,99098.19
2018-09-15T05:47:38.302Z,99114.20
2018-09-15T05:50:05.875Z,99115.34
2018-09-15T05:52:33.301Z,99114.28
2018-09-15T05:55:00.583Z,99123.28
2018-09-15T05:57:27.855Z,99123.59
2018-09-15T05:59:55.139Z,99129.44
2018-09-15T06:02:22.668Z,99127.97
2018-09-15T06:04:50.661Z,99131.24
2018-09-15T06:07:17.994Z,99135.34
2018-09-15T06:09:45.276Z,99137.29
2018-09-15T06:12:12.602Z,99135.73
2018-09-15T06:14:39.839Z,99140.26
2018-09-15T06:17:07.140Z,99143.10
2018-09-15T06:19:34.467Z,99141.02
2018-09-15T06:22:01.800Z,99146.06
2018-09-15T06:24:29.127Z,99149.03
2018-09-15T06:26:56.447Z,99145.57
2018-09-15T06:29:23.659Z,99147.47
2018-09-15T06:31:51.037Z,99137.90
2018-09-15T06:34:18.511Z,99138.07
2018-09-15T06:36:45.783Z,99136.09
2018-09-15T06:39:13.104Z,99139.70
2018-09-15T06:41:41.596Z,99141.48
2018-09-15T06:44:08.874Z,99147.11
2018-09-15T06:46:37.148Z,99139.58
2018-09-15T06:49:04.411Z,99145.00
2018-09-15T06:51:32.643Z,99149.74
2018-09-15T06:54:00.359Z,99146.91
2018-09-15T06:56:27.607Z,99148.63
2018-09-15T06:58:54.847Z,99151.03
2018-09-15T07:01:22.107Z,99161.59
2018-09-15T07:03:49.360Z,99166.56
2018-09-15T07:06:16.658Z,99173.28
2018-09-15T07:08:43.940Z,99165.67
2018-09-15T07:11:11.208Z,99170.92
2018-09-15T07:13:38.484Z,99170.52
2018-09-15T07:16:06.006Z,99172.99
2018-09-15T07:18:33.243Z,99180.53
2018-09-15T07:21:00.564Z,99188.34
2018-09-15T07:23:27.857Z,99188.00
2018-09-15T07:25:55.204Z,99186.48
2018-09-15T07:28:22.465Z,99189.80
2018-09-15T07:30:49.842Z,99185.98
2018-09-15T07:33:17.151Z,99194.97
2018-09-15T07:35:44.408Z,99190.30
2018-09-15T07:38:11.673Z,99197.38
2018-09-15T07:40:38.894Z,99207.50
2018-09-15T07:43:06.805Z,99197.31
2018-09-15T07:45:34.096Z,99201.89
2018-09-15T07:48:01.544Z,99200.84
2018-09-15T07:50:28.806Z,99200.95
2018-09-15T07:52:56.087Z,99202.88
2018-09-15T07:55:23.330Z,99206.90
2018-09-15T07:57:50.795Z,99209.28
2018-09-15T08:00:17.950Z,99201.41
2018-09-15T08:02:45.219Z,99210.61
2018-09-15T08:05:12.469Z,99202.98
2018-09-15T08:07:39.772Z,99205.96
2018-09-15T08:10:07.043Z,99200.67
2018-09-15T08:12:34.335Z,99208.94
2018-09-15T08:15:01.659Z,99205.97
2018-09-15T08:17:28.973Z,99199.47
2018-09-15T08:19:56.236Z,99203.22
2018-09-15T08:22:23.625Z,99204.52
2018-09-15T08:24:50.882Z,99196.38
2018-09-15T08:27:18.143Z,99195.31
2018-09-15T08:29:45.423Z,99196.67
2018-09-15T08:32:12.749Z,99203.46
2018-09-15T08:34:40.067Z,99211.69
2018-09-15T08:37:07.417Z,99208.20
2018-09-15T08:39:34.781Z,99206.74
2018-09-15T08:42:02.160Z,99203.16
2018-09-15T08:44:29.448Z,99203.51
2018-09-15T08:46:56.688Z,99204.79
2018-09-15T08:49:23.916Z,99203.69
2018-09-15T08:51:51.349Z,99207.76
2018-09-15T08:54:18.639Z,99209.41
2018-09-15T08:56:45.998Z,99213.05
2018-09-15T08:59:13.907Z,99217.50
2018-09-15T09:01:41.260Z,99212.28
2018-09-15T09:04:08.611Z,99211.03
2018-09-15T09:06:35.924Z,99207.69
2018-09-15T09:09:05.079Z,99214.31
2018-09-15T09:11:32.293Z,99214.33
2018-09-15T09:13:59.550Z,99211.11
2018-09-15T09:16:27.576Z,99212.44
2018-09-15T09:18:54.860Z,99208.55
2018-09-15T09:21:22.111Z,99214.84
2018-09-15T09:23:49.412Z,99215.24
2018-09-15T09:26:16.729Z,99211.72
2018-09-15T09:28:44.028Z,99209.91
2018-09-15T09:31:11.320Z,99216.81
2018-09-15T09:33:39.442Z,99216.00
2018-09-15T09:36:06.700Z,99215.47
2018-09-15T09:38:33.962Z,99221.24
2018-09-15T09:41:01.189Z,99218.16
2018-09-15T09:43:28.432Z,99224.42
2018-09-15T09:45:55.669Z,99217.70
2018-09-15T09:48:22.995Z,99226.55
2018-09-15T09:50:50.202Z,99215.45
2018-09-15T09:53:17.447Z,99210.81
2018-09-15T09:55:44.660Z,99213.65
2018-09-15T09:58:11.977Z,99212.23
2018-09-15T10:00:44.921Z,99209.89
2018-09-15T10:03:12.307Z,99208.77
2018-09-15T10:05:39.551Z,99208.05
2018-09-15T10:08:06.776Z,99199.77
2018-09-15T10:10:34.005Z,99194.78
2018-09-15T10:13:01.274Z,99190.55
2018-09-15T10:15:28.541Z,99192.22
2018-09-15T10:17:55.783Z,99194.96
2018-09-15T10:20:23.017Z,99196.97
2018-09-15T10:22:50.271Z,99202.38
2018-09-15T10:25:17.499Z,99210.41
2018-09-15T10:27:44.760Z,99206.41
2018-09-15T10:30:12.018Z,99198.47
2018-09-15T10:32:39.249Z,99201.19
2018-09-15T10:35:06.783Z,99189.01
2018-09-15T10:37:34.010Z,99184.63
2018-09-15T10:40:01.294Z,99194.30
2018-09-15T10:42:28.550Z,99195.98
2018-09-15T10:44:55.900Z,99199.70
2018-09-15T10:47:23.134Z,99192.02
2018-09-15T10:49:50.415Z,99196.15
2018-09-15T10:52:17.672Z,99185.96
2018-09-15T10:54:44.955Z,99191.09
2018-09-15T10:57:12.259Z,99180.63
2018-09-15T10:59:39.494Z,99177.67
2018-09-15T11:02:11.400Z,99183.15
2018-09-15T11:04:39.969Z,99181.03
2018-09-15T11:07:07.329Z,99184.55
2018-09-15T11:09:34.569Z,99179.53
2018-09-15T11:12:01.906Z,99182.94
2018-09-15T11:14:29.153Z,99177.78
2018-09-15T11:16:56.380Z,99168.06
2018-09-15T11:19:23.700Z,99180.12
2018-09-15T11:21:50.948Z,99175.12
2018-09-15T11:24:18.446Z,99173.14
2018-09-15T11:26:45.800Z,99179.71
2018-09-15T11:29:13.152Z,99173.44
2018-09-15T11:31:40.415Z,99167.88
2018-09-15T11:34:08.378Z,99171.69
2018-09-15T11:36:35.620Z,99186.23
2018-09-15T11:39:03.356Z,99182.59
2018-09-15T11:41:30.546Z,99181.10
2018-09-15T11:43:57.814Z,99181.89
2018-09-15T11:46:25.019Z,99188.01
2018-09-15T11:48:52.279Z,99184.62
2018-09-15T11:51:19.500Z,99180.30
2018-09-15T11:53:46.820Z,99180.05
2018-09-15T11:56:14.051Z,99187.55
2018-09-15T11:58:41.303Z,99182.52
2018-09-15T12:01:08.573Z,99187.30
2018-09-15T12:03:35.794Z,99181.20
2018-09-15T12:06:03.035Z,99177.63
2018-09-15T12:08:30.269Z,99173.31
2018-09-15T12:10:57.527Z,99173.95
2018-09-15T12:13:24.743Z,99165.40
2018-09-15T12:15:51.989Z,99167.30
2018-09-15T12:18:19.212Z,99175.12
2018-09-15T12:20:46.506Z,99177.42
2018-09-15T12:23:13.999Z,99182.52
2018-09-15T12:25:41.494Z,99173.60
2018-09-15T12:28:09.130Z,99182.22
2018-09-15T12:30:36.430Z,99173.13
2018-09-15T12:33:03.966Z,99182.34
2018-09-15T12:35:31.232Z,99180.30
2018-09-15T12:37:58.479Z,99175.25
2018-09-15T12:40:25.751Z,99169.05
2018-09-15T12:42:53.348Z,99178.75
2018-09-15T12:45:20.709Z,99170.39
2018-09-15T12:47:47.952Z,99175.44
2018-09-15T12:50:15.223Z,99170.39
2018-09-15T12:52:42.447Z,99168.89
2018-09-15T12:55:09.703Z,99169.08
2018-09-15T12:57:36.944Z,99171.50
2018-09-15T13:00:04.249Z,99172.81
2018-09-15T13:02:31.529Z,99166.17
2018-09-15T13:07:32.968Z,99159.79
2018-09-15T13:10:00.231Z,99163.64
2018-09-15T13:12:27.435Z,99161.08
2018-09-15T13:14:54.814Z,99161.56
2018-09-15T13:17:22.033Z,99165.56
2018-09-15T13:19:49.318Z,99170.81
2018-09-15T13:22:16.563Z,99163.91
2018-09-15T13:24:43.858Z,99160.41
2018-09-15T13:27:11.082Z,99160.17
2018-09-15T13:29:38.511Z,99160.17
2018-09-15T13:32:05.761Z,99162.06
2018-09-15T13:34:33.003Z,99165.05
2018-09-15T13:37:00.408Z,99161.69
2018-09-15T13:39:27.614Z,99165.39
2018-09-15T13:41:54.870Z,99168.79
2018-09-15T13:44:22.168Z,99173.14
2018-09-15T13:46:49.413Z,99167.31
2018-09-15T13:49:17.017Z,99174.41
2018-09-15T13:51:44.279Z,99171.67
2018-09-15T13:54:11.529Z,99171.73
2018-09-15T13:56:38.797Z,99172.72
2018-09-15T13:59:06.068Z,99180.13
2018-09-15T14:01:33.515Z,99181.59
2018-09-15T14:04:00.846Z,99184.96
2018-09-15T14:06:28.122Z,99177.84
2018-09-15T14:08:55.352Z,99187.92
2018-09-15T14:11:22.606Z,99185.98
2018-09-15T14:13:49.858Z,99184.53
2018-09-15T14:16:17.147Z,99185.59
2018-09-15T14:18:44.386Z,99182.92
2018-09-15T14:21:11.650Z,99191.75
2018-09-15T14:23:38.978Z,99190.95
2018-09-15T14:26:06.840Z,99190.45
2018-09-15T14:28:34.090Z,99188.97
2018-09-15T14:31:01.519Z,99196.69
2018-09-15T14:33:29.069Z,99199.98
2018-09-15T14:35:56.356Z,99198.58
2018-09-15T14:38:24.202Z,99199.70
2018-09-15T14:40:51.493Z,99193.47
2018-09-15T14:43:18.719Z,99198.04
2018-09-15T14:45:47.388Z,99196.30
2018-09-15T14:48:14.642Z,99197.34
2018-09-15T14:50:41.938Z,99195.92
2018-09-15T14:53:09.186Z,99195.20
2018-09-15T14:55:36.454Z,99189.29
2018-09-15T14:58:03.700Z,99193.87
2018-09-15T15:00:31.068Z,99193.91
2018-09-15T15:03:01.026Z,99192.09
2018-09-15T15:05:28.250Z,99196.13
2018-09-15T15:07:55.635Z,99187.06
2018-09-15T15:10:22.931Z,99189.29
2018-09-15T15:12:52.240Z,99189.05
2018-09-15T15:15:19.585Z,99191.13
2018-09-15T15:17:46.891Z,99192.13
2018-09-15T15:20:14.381Z,99187.20
2018-09-15T15:22:41.760Z,99193.14
2018-09-15T15:25:09.059Z,99194.95
2018-09-15T15:27:36.722Z,99188.75
2018-09-15T15:30:04.560Z,99192.07
2018-09-15T15:32:31.871Z,99196.22
2018-09-15T15:34:59.119Z,99192.41
2018-09-15T15:37:26.378Z,99196.22
2018-09-15T15:39:53.686Z,99194.91
2018-09-15T15:42:21.225Z,99195.59
2018-09-15T15:44:48.662Z,99201.02
2018-09-15T15:47:15.939Z,99199.94
2018-09-15T15:49:43.177Z,99202.52
2018-09-15T15:52:10.545Z,99193.34
2018-09-15T15:54:37.809Z,99179.19
2018-09-15T15:57:05.366Z,99183.44
2018-09-15T15:59:32.616Z,99188.13
2018-09-15T16:01:59.898Z,99185.08
2018-09-15T16:04:27.244Z,99187.75
2018-09-15T16:06:54.504Z,99192.14
2018-09-15T16:09:21.815Z,99199.45
2018-09-15T16:11:49.161Z,99199.76
2018-09-15T16:14:16.451Z,99204.80
2018-09-15T16:16:43.751Z,99196.72
2018-09-15T16:19:11.591Z,99198.66
2018-09-15T16:21:38.911Z,99205.97
2018-09-15T16:24:06.251Z,99204.63
2018-09-15T16:26:33.535Z,99199.52
2018-09-15T16:29:00.821Z,99206.36
2018-09-15T16:31:28.136Z,99206.99
2018-09-15T16:33:55.412Z,99209.80
2018-09-15T16:36:22.695Z,99214.89
2018-09-15T16:38:56.695Z,99225.85
2018-09-15T16:41:24.051Z,99222.84
2018-09-15T16:43:51.466Z,99221.95
2018-09-15T16:46:18.747Z,99217.22
2018-09-15T16:48:46.277Z,99221.14
2018-09-15T16:51:13.575Z,99221.54
2018-09-15T16:53:40.881Z,99226.48
2018-09-15T16:56:08.154Z,99225.34
2018-09-15T16:58:35.911Z,99226.20
2018-09-15T17:01:04.109Z,99219.30
2018-09-15T17:03:31.467Z,99232.75
2018-09-15T17:05:58.705Z,99228.11
2018-09-15T17:08:25.968Z,99226.91
2018-09-15T17:10:53.285Z,99235.98
2018-09-15T17:13:20.556Z,99235.31
2018-09-15T17:15:47.796Z,99235.11
2018-09-15T17:18:15.098Z,99240.89
2018-09-15T17:20:42.335Z,99247.16
2018-09-15T17:23:09.732Z,99239.41
2018-09-15T17:25:37.065Z,99234.78
2018-09-15T17:28:04.405Z,99235.58
2018-09-15T17:30:31.631Z,99238.25
2018-09-15T17:32:58.923Z,99243.91
2018-09-15T17:35:26.143Z,99254.52
2018-09-15T17:37:53.402Z,99262.24
2018-09-15T17:40:20.631Z,99260.41
2018-09-15T17:42:47.871Z,99255.20
2018-09-15T17:45:15.217Z,99255.69
2018-09-15T17:47:42.518Z,99265.00
2018-09-15T17:50:09.861Z,99270.19
2018-09-15T17:52:37.200Z,99270.58
2018-09-15T17:55:04.769Z,99275.11
2018-09-15T17:57:32.111Z,99275.78
2018-09-15T17:59:59.425Z,99275.59
2018-09-15T18:02:26.687Z,99280.44
2018-09-15T18:04:53.958Z,99289.45
2018-09-15T18:07:21.275Z,99296.33
2018-09-15T18:09:48.586Z,99289.11
2018-09-15T18:12:15.851Z,99294.39
2018-09-15T18:14:43.129Z,99295.16
2018-09-15T18:17:11.629Z,99294.90
2018-09-15T18:19:40.737Z,99297.05
2018-09-15T18:22:08.275Z,99298.86
2018-09-15T18:24:36.625Z,99309.78
2018-09-15T18:27:03.971Z,99308.34
2018-09-15T18:29:32.261Z,99316.82
2018-09-15T18:31:59.937Z,99314.58
2018-09-15T18:34:27.542Z,99319.06
2018-09-15T18:36:55.427Z,99321.94
2018-09-15T18:39:22.669Z,99325.63
2018-09-15T18:41:50.468Z,99327.54
2018-09-15T18:44:18.573Z,99326.83
2018-09-15T18:46:46.893Z,99328.66
2018-09-15T18:49:14.735Z,99327.10
2018-09-15T18:51:42.327Z,99330.42
2018-09-15T18:54:10.045Z,99330.09
2018-09-15T18:56:37.572Z,99332.33
2018-09-15T18:59:05.202Z,99331.55
2018-09-15T19:01:32.786Z,99331.67
2018-09-15T19:04:00.165Z,99335.40
2018-09-15T19:06:27.879Z,99337.33
2018-09-15T19:08:55.200Z,99337.80
2018-09-15T19:11:22.542Z,99343.30
2018-09-15T19:13:50.679Z,99342.73
2018-09-15T19:16:18.188Z,99342.93
2018-09-15T19:18:46.295Z,99337.27
2018-09-15T19:21:13.917Z,99345.68
2018-09-15T19:23:41.575Z,99344.81
2018-09-15T19:26:09.348Z,99349.28
2018-09-15T19:28:37.896Z,99348.83
2018-09-15T19:31:06.457Z,99343.63
2018-09-15T19:33:34.249Z,99347.19
2018-09-15T19:36:01.817Z,99346.73
2018-09-15T19:38:29.390Z,99346.27
2018-09-15T19:40:57.110Z,99343.17
2018-09-15T19:43:25.020Z,99337.52
2018-09-15T19:45:53.028Z,99344.30
2018-09-15T19:48:20.549Z,99344.76
2018-09-15T19:50:48.075Z,99351.41
2018-09-15T19:53:15.362Z,99346.81
2018-09-15T19:55:43.095Z,99346.55
2018-09-15T19:58:10.505Z,99347.96
2018-09-15T20:00:38.942Z,99352.44
2018-09-15T20:03:06.343Z,99348.52
2018-09-15T20:05:33.763Z,99348.92
2018-09-15T20:08:01.953Z,99346.00
2018-09-15T20:10:29.507Z,99352.62
2018-09-15T20:12:57.080Z,99347.97
2018-09-15T20:15:27.791Z,99349.47
2018-09-15T20:17:54.212Z,99354.83
2018-09-15T20:20:21.901Z,99362.39
2018-09-15T20:22:50.346Z,99365.45
2018-09-15T20:25:18.606Z,99363.76
2018-09-15T20:27:46.135Z,99372.76
2018-09-15T20:30:13.639Z,99378.50
2018-09-15T20:32:41.411Z,99389.39
2018-09-15T20:35:09.483Z,99387.82
2018-09-15T20:37:38.002Z,99391.33
2018-09-15T20:40:06.048Z,99386.95
2018-09-15T20:42:33.464Z,99388.89
2018-09-15T20:45:01.146Z,99391.84
2018-09-15T20:47:29.313Z,99387.41
2018-09-15T20:49:56.712Z,99391.69
2018-09-15T20:52:25.960Z,99390.96
2018-09-15T20:54:54.399Z,99390.16
2018-09-15T20:57:21.706Z,99388.42
2018-09-15T20:59:48.920Z,99390.74
2018-09-15T21:02:16.150Z,99388.52
2018-09-15T21:04:43.564Z,99391.13
2018-09-15T21:07:10.877Z,99390.81
2018-09-15T21:09:38.286Z,99393.48
2018-09-15T21:12:05.729Z,99397.02
2018-09-15T21:14:33.040Z,99406.50
2018-09-15T21:17:00.299Z,99401.34
2018-09-15T21:19:27.556Z,99408.98
2018-09-15T21:21:54.891Z,99409.14
2018-09-15T21:24:22.196Z,99409.45
2018-09-15T21:26:49.470Z,99410.77
2018-09-15T21:29:16.723Z,99410.27
2018-09-15T21:31:43.981Z,99412.91
2018-09-15T21:34:11.304Z,99411.70
2018-09-15T21:36:38.590Z,99416.65
2018-09-15T21:39:09.697Z,99413.14
2018-09-15T21:41:37.311Z,99417.77
2018-09-15T21:44:04.595Z,99419.84
2018-09-15T21:46:31.852Z,99420.66
2018-09-15T21:49:03.805Z,99429.92
2018-09-15T21:51:31.079Z,99427.67
2018-09-15T21:53:58.315Z,99433.88
2018-09-15T21:56:25.621Z,99429.95
2018-09-15T21:58:52.972Z,99429.59
2018-09-15T22:01:20.466Z,99436.22
2018-09-15T22:03:53.491Z,99427.89
2018-09-15T22:06:20.763Z,99432.27
2018-09-15T22:08:49.139Z,99428.67
2018-09-15T22:11:16.435Z,99424.30
2018-09-15T22:13:46.936Z,99429.14
2018-09-15T22:16:14.226Z,99429.18
2018-09-15T22:18:41.480Z,99430.50
2018-09-15T22:21:08.839Z,99432.69
2018-09-15T22:23:36.099Z,99435.77
2018-09-15T22:26:03.398Z,99437.00
2018-09-15T22:28:30.936Z,99436.97
2018-09-15T22:30:58.336Z,99433.46
2018-09-15T22:33:26.358Z,99432.98
2018-09-15T22:35:53.682Z,99437.00
2018-09-15T22:38:21.060Z,99431.37
2018-09-15T22:40:48.390Z,99436.61
2018-09-15T22:43:15.698Z,99430.83
2018-09-15T22:45:42.978Z,99428.98
2018-09-15T22:48:10.327Z,99426.77
2018-09-15T22:50:37.555Z,99427.61
2018-09-15T22:53:04.885Z,99430.24
2018-09-15T22:55:32.156Z,99435.97
2018-09-15T22:57:59.441Z,99429.89
2018-09-15T23:00:26.732Z,99432.56
2018-09-15T23:02:54.007Z,99439.16
2018-09-15T23:05:21.296Z,99439.57
2018-09-15T23:07:48.637Z,99435.65
2018-09-15T23:10:15.911Z,99431.27
2018-09-15T23:12:43.245Z,99438.70
2018-09-15T23:15:10.532Z,99437.39
2018-09-15T23:17:37.844Z,99434.42
2018-09-15T23:20:05.508Z,99441.53
2018-09-15T23:22:33.903Z,99439.10
2018-09-15T23:25:01.203Z,99436.94
2018-09-15T23:27:28.671Z,99441.77
2018-09-15T23:29:55.939Z,99440.05
2018-09-15T23:32:23.233Z,99437.90
2018-09-15T23:34:50.482Z,99437.52
2018-09-15T23:37:17.783Z,99438.47
2018-09-15T23:39:45.060Z,99438.58
2018-09-15T23:42:12.280Z,99441.27
2018-09-15T23:44:39.514Z,99433.02
2018-09-15T23:47:06.744Z,99434.42
2018-09-15T23:49:33.958Z,99437.55
2018-09-15T23:52:01.192Z,99433.66
2018-09-15T23:54:29.555Z,99439.85
2018-09-15T23:56:56.827Z,99435.08
2018-09-15T23:59:24.039Z,99436.37
